Time;durP1;ratioP1;P1;durP2;ratioP2;P2;SDS_P1;SDS_P2;PMS_P1;PMS_P2;Temp;Humidity;BMP_temperature;BMP_pressure;BME280_temperature;BME280_humidity;BME280_pressure;Samples;Min_cycle;Max_cycle;Signal;HPM_P1;HPM_P2
2022/05/29 00:02:03;;;;;;;;;;;;;;;9.67;81.82;99970.02;84791;1327;24146;-73
2022/05/29 00:04:09;;;;;;;;;;;;;;;9.69;81.90;99970.13;84791;1327;23957;-73
2022/05/29 00:06:15;;;;;;;;;;;;;;;9.72;81.88;99970.69;84795;1327;25285;-73
2022/05/29 00:08:24;;;;;;;;;;;;;;;9.75;82.05;99972.30;84800;1327;22609;-73
2022/05/29 00:10:30;;;;;;;;;;;;;;;9.78;82.08;99972.34;84794;1320;23036;-73
2022/05/29 00:12:36;;;;;;;;;;;;;;;9.81;81.90;99970.70;84802;1324;22565;-73
2022/05/29 00:14:42;;;;;;;;;;;;;;;9.81;81.85;99972.05;84798;1325;25424;-74
2022/05/29 00:16:48;;;;;;;;;;;;;;;9.81;81.75;99975.18;84788;1327;25408;-73
2022/05/29 00:18:54;;;;;;;;;;;;;;;9.83;81.89;99975.61;84805;1322;22601;-72
2022/05/29 00:21:01;;;;;;;;;;;;;;;9.88;81.96;99974.73;84824;1323;22566;-73
2022/05/29 00:23:07;;;;;;;;;;;;;;;9.91;81.94;99974.45;84794;1325;22601;-73
2022/05/29 00:25:13;;;;;;;;;;;;;;;9.95;81.93;99973.06;84793;1327;22577;-73
2022/05/29 00:27:19;;;;;;;;;;;;;;;9.97;81.77;99974.52;84808;1328;22565;-73
2022/05/29 00:29:25;;;;;;;;;;;;;;;10.00;81.74;99974.75;84794;1326;22564;-73
2022/05/29 00:31:31;;;;;;;;;;;;;;;10.01;81.84;99974.56;84795;1325;22970;-72
2022/05/29 00:33:37;;;;;;;;;;;;;;;10.03;81.66;99978.12;84811;1325;22602;-72
2022/05/29 00:35:43;;;;;;;;;;;;;;;10.02;81.58;99976.39;84779;1321;22584;-73
2022/05/29 00:37:49;;;;;;;;;;;;;;;10.02;81.66;99980.23;84807;1326;24179;-73
2022/05/29 00:39:55;;;;;;;;;;;;;;;10.01;81.50;99980.84;84807;1327;23860;-73
2022/05/29 00:42:01;;;;;;;;;;;;;;;9.99;81.58;99982.10;84816;1327;25416;-72
2022/05/29 00:44:13;;;;;;;;;;;;;;;9.98;81.46;99980.59;84786;1321;22572;-73
2022/05/29 00:46:19;;;;;;;;;;;;;;;9.97;81.67;99986.05;84814;1327;23855;-73
2022/05/29 00:48:26;;;;;;;;;;;;;;;9.96;81.44;99983.31;84804;1326;25400;-73
2022/05/29 00:50:32;;;;;;;;;;;;;;;9.95;81.57;99982.81;84798;1325;22576;-73
2022/05/29 00:52:38;;;;;;;;;;;;;;;9.93;81.41;99985.50;84799;1327;24465;-73
2022/05/29 00:54:46;;;;;;;;;;;;;;;9.92;81.60;99985.92;84780;1322;24199;-74
2022/05/29 00:56:52;;;;;;;;;;;;;;;9.88;81.56;99985.02;84799;1324;22795;-73
2022/05/29 00:58:58;;;;;;;;;;;;;;;9.85;81.45;99986.02;84784;1327;22783;-72
2022/05/29 01:01:05;;;;;;;;;;;;;;;9.82;81.68;99984.52;84748;1327;24328;-73
2022/05/29 01:03:10;;;;;;;;;;;;;;;9.82;81.93;99983.70;84793;1326;25427;-73
2022/05/29 01:05:18;;;;;;;;;;;;;;;9.80;81.79;99979.93;84796;1325;25417;-74
2022/05/29 01:07:24;;;;;;;;;;;;;;;9.78;81.83;99978.59;84797;1326;22557;-73
2022/05/29 01:09:31;;;;;;;;;;;;;;;9.76;81.74;99979.41;84799;1327;22561;-73
2022/05/29 01:11:42;;;;;;;;;;;;;;;9.74;81.85;99978.45;84823;1327;24322;-73
2022/05/29 01:13:53;;;;;;;;;;;;;;;9.71;81.80;99978.06;84809;1326;22682;-72
2022/05/29 01:16:02;;;;;;;;;;;;;;;9.66;81.72;99973.36;84793;1326;22562;-73
2022/05/29 01:18:15;;;;;;;;;;;;;;;9.63;81.86;99973.17;84802;1327;22569;-73
2022/05/29 01:20:35;;;;;;;;;;;;;;;9.58;81.79;99973.02;84794;1327;22707;-74
2022/05/29 01:23:10;;;;;;;;;;;;;;;9.52;81.88;99971.67;84787;1326;22622;-73
2022/05/29 01:25:41;;;;;;;;;;;;;;;9.48;81.97;99973.04;84774;1327;22590;-73
2022/05/29 01:27:51;;;;;;;;;;;;;;;9.47;82.16;99974.48;84816;1325;22574;-73
2022/05/29 01:30:01;;;;;;;;;;;;;;;9.48;82.33;99982.30;84829;1325;22590;-73
2022/05/29 01:32:11;;;;;;;;;;;;;;;9.49;82.44;99981.88;84814;1327;22560;-73
2022/05/29 01:34:25;;;;;;;;;;;;;;;9.50;82.54;99980.78;84810;1326;22561;-73
2022/05/29 01:36:34;;;;;;;;;;;;;;;9.53;82.53;99983.29;84824;1327;25445;-72
2022/05/29 01:38:42;;;;;;;;;;;;;;;9.56;82.63;99988.25;84835;1322;24196;-73
2022/05/29 01:40:51;;;;;;;;;;;;;;;9.58;82.48;99985.55;84856;1327;22589;-73
2022/05/29 01:42:58;;;;;;;;;;;;;;;9.60;82.56;99984.77;84830;1327;25278;-73
2022/05/29 01:45:08;;;;;;;;;;;;;;;9.61;82.56;99984.19;84792;1326;22570;-73
2022/05/29 01:47:16;;;;;;;;;;;;;;;9.64;82.48;99983.55;84812;1328;22584;-73
2022/05/29 01:49:23;;;;;;;;;;;;;;;9.65;82.52;99979.66;84817;1325;25412;-73
2022/05/29 01:51:33;;;;;;;;;;;;;;;9.68;82.41;99978.02;84801;1322;22580;-73
2022/05/29 01:53:41;;;;;;;;;;;;;;;9.67;82.11;99977.69;84795;1323;22565;-72
2022/05/29 01:55:48;;;;;;;;;;;;;;;9.68;82.15;99975.90;84806;1326;24968;-73
2022/05/29 01:57:56;;;;;;;;;;;;;;;9.67;82.13;99975.95;84817;1324;22570;-72
2022/05/29 02:00:04;;;;;;;;;;;;;;;9.66;82.04;99973.04;84805;1326;22574;-72
2022/05/29 02:02:12;;;;;;;;;;;;;;;9.63;81.96;99971.05;84806;1327;25354;-73
2022/05/29 02:04:19;;;;;;;;;;;;;;;9.64;82.04;99970.67;84798;1327;23863;-73
2022/05/29 02:06:26;;;;;;;;;;;;;;;9.65;82.05;99970.99;84766;1326;22689;-73
2022/05/29 02:08:36;;;;;;;;;;;;;;;9.63;81.90;99970.70;84794;1327;22574;-73
2022/05/29 02:10:43;;;;;;;;;;;;;;;9.60;81.79;99974.69;84788;1325;22620;-72
2022/05/29 02:12:52;;;;;;;;;;;;;;;9.57;81.72;99976.37;84818;1325;22576;-73
2022/05/29 02:15:02;;;;;;;;;;;;;;;9.55;81.89;99980.08;84813;1327;25351;-73
2022/05/29 02:17:10;;;;;;;;;;;;;;;9.52;81.93;99978.81;84822;1323;23024;-72
2022/05/29 02:19:17;;;;;;;;;;;;;;;9.51;81.93;99977.46;84814;1327;22644;-73
2022/05/29 02:21:26;;;;;;;;;;;;;;;9.50;82.00;99976.80;84795;1327;25342;-72
2022/05/29 02:23:33;;;;;;;;;;;;;;;9.48;81.98;99975.49;84815;1326;22929;-70
2022/05/29 02:25:39;;;;;;;;;;;;;;;9.46;82.07;99974.19;84808;1327;22705;-71
2022/05/29 02:27:47;;;;;;;;;;;;;;;9.45;82.01;99980.48;84806;1326;22733;-72
2022/05/29 02:29:53;;;;;;;;;;;;;;;9.44;82.08;99980.86;84789;1325;22838;-73
2022/05/29 02:32:04;;;;;;;;;;;;;;;9.44;82.16;99981.73;84798;1325;22561;-74
2022/05/29 02:34:14;;;;;;;;;;;;;;;9.43;82.25;99977.61;84796;1322;22607;-72
2022/05/29 02:36:24;;;;;;;;;;;;;;;9.42;82.34;99976.23;84798;1326;22557;-71
2022/05/29 02:38:33;;;;;;;;;;;;;;;9.43;82.31;99974.48;84798;1326;23783;-72
2022/05/29 02:40:46;;;;;;;;;;;;;;;9.43;82.31;99976.05;84810;1326;22570;-73
2022/05/29 02:42:58;;;;;;;;;;;;;;;9.41;82.36;99974.36;84811;1326;22577;-73
2022/05/29 02:45:12;;;;;;;;;;;;;;;9.41;82.54;99972.81;84812;1325;24480;-72
2022/05/29 02:47:26;;;;;;;;;;;;;;;9.41;82.52;99979.26;84812;1328;22851;-72
2022/05/29 02:49:34;;;;;;;;;;;;;;;9.40;82.66;99975.27;84840;1325;22702;-73
2022/05/29 02:51:43;;;;;;;;;;;;;;;9.41;82.73;99975.41;84801;1327;22562;-72
2022/05/29 02:53:49;;;;;;;;;;;;;;;9.43;82.86;99979.16;84826;1321;22603;-73
2022/05/29 02:55:55;;;;;;;;;;;;;;;9.45;83.00;99975.95;84787;1327;22570;-73
2022/05/29 02:58:02;;;;;;;;;;;;;;;9.48;82.93;99974.82;84796;1326;22561;-73
2022/05/29 03:00:12;;;;;;;;;;;;;;;9.50;83.01;99976.95;84801;1326;23463;-73
2022/05/29 03:02:25;;;;;;;;;;;;;;;9.54;83.11;99979.60;84822;1327;22566;-72
2022/05/29 03:04:34;;;;;;;;;;;;;;;9.57;83.04;99982.10;84802;1325;22604;-72
2022/05/29 03:06:46;;;;;;;;;;;;;;;9.61;83.09;99986.30;84813;1326;22578;-73
2022/05/29 03:09:03;;;;;;;;;;;;;;;9.65;82.97;99989.80;84799;1322;24342;-74
2022/05/29 03:11:11;;;;;;;;;;;;;;;9.69;82.95;99992.73;84793;1327;22578;-73
2022/05/29 03:13:19;;;;;;;;;;;;;;;9.74;83.06;99993.60;84799;1326;22579;-72
2022/05/29 03:15:33;;;;;;;;;;;;;;;9.79;83.01;99997.55;84800;1328;22591;-73
2022/05/29 03:17:42;;;;;;;;;;;;;;;9.84;83.01;100000.85;84828;1325;22600;-73
2022/05/29 03:19:53;;;;;;;;;;;;;;;9.90;82.88;100000.98;84811;1325;22565;-72
2022/05/29 03:22:05;;;;;;;;;;;;;;;9.93;82.72;100002.42;84807;1327;25402;-72
2022/05/29 03:24:16;;;;;;;;;;;;;;;9.95;82.65;100001.09;84788;1327;25535;-71
2022/05/29 03:26:24;;;;;;;;;;;;;;;9.99;82.69;100003.20;84811;1325;25245;-75
2022/05/29 03:28:32;;;;;;;;;;;;;;;10.04;82.54;100000.91;84801;1325;22590;-73
2022/05/29 03:30:39;;;;;;;;;;;;;;;10.06;82.48;100002.89;84791;1327;22584;-74
2022/05/29 03:32:45;;;;;;;;;;;;;;;10.09;82.32;100005.21;84787;1327;22582;-73
2022/05/29 03:34:51;;;;;;;;;;;;;;;10.09;82.16;100005.89;84806;1325;22572;-74
2022/05/29 03:36:57;;;;;;;;;;;;;;;10.10;82.23;100005.69;84805;1326;22862;-73
2022/05/29 03:39:03;;;;;;;;;;;;;;;10.12;82.02;100003.73;84819;1326;22559;-73
2022/05/29 03:41:12;;;;;;;;;;;;;;;10.12;82.01;100002.30;84809;1323;24261;-73
2022/05/29 03:43:18;;;;;;;;;;;;;;;10.13;82.09;100003.30;84830;1326;25392;-73
2022/05/29 03:45:24;;;;;;;;;;;;;;;10.14;82.02;100008.30;84807;1327;22848;-73
2022/05/29 03:47:30;;;;;;;;;;;;;;;10.15;81.79;100007.06;84800;1325;22575;-73
2022/05/29 03:49:36;;;;;;;;;;;;;;;10.17;82.04;100006.48;84805;1327;22969;-73
2022/05/29 03:51:42;;;;;;;;;;;;;;;10.18;82.12;100009.20;84804;1327;25413;-74
2022/05/29 03:53:48;;;;;;;;;;;;;;;10.20;82.29;100005.79;84784;1326;22571;-73
2022/05/29 03:55:54;;;;;;;;;;;;;;;10.23;82.19;100008.47;84775;1322;23024;-72
2022/05/29 03:58:00;;;;;;;;;;;;;;;10.28;82.24;100005.83;84808;1326;24251;-72
2022/05/29 04:00:08;;;;;;;;;;;;;;;10.38;82.40;100005.42;84780;1322;22581;-72
2022/05/29 04:02:14;;;;;;;;;;;;;;;10.53;82.67;100004.61;84822;1326;22561;-72
2022/05/29 04:04:20;;;;;;;;;;;;;;;10.67;82.78;100006.77;84804;1329;22561;-72
2022/05/29 04:06:27;;;;;;;;;;;;;;;10.80;82.64;100007.59;84792;1325;22572;-72
2022/05/29 04:13:20;;;;;;;;;;;;;;;10.97;81.68;100012.23;84666;1326;159466;-73
2022/05/29 04:15:27;;;;;;;;;;;;;;;11.03;81.53;100014.20;84778;1327;22586;-73
2022/05/29 04:17:32;;;;;;;;;;;;;;;11.07;81.25;100017.37;84799;1325;22570;-73
2022/05/29 04:19:38;;;;;;;;;;;;;;;11.09;81.14;100021.09;84784;1325;22564;-73
2022/05/29 04:21:45;;;;;;;;;;;;;;;11.10;80.86;100020.20;84824;1327;22821;-71
2022/05/29 04:23:53;;;;;;;;;;;;;;;11.10;80.59;100022.48;84799;1324;22576;-73
2022/05/29 04:26:01;;;;;;;;;;;;;;;11.10;80.29;100026.48;84803;1325;22763;-72
2022/05/29 04:28:08;;;;;;;;;;;;;;;11.09;80.14;100031.42;84803;1326;22583;-73
2022/05/29 04:30:14;;;;;;;;;;;;;;;11.08;80.06;100031.98;84807;1325;22577;-73
2022/05/29 04:34:44;;;;;;;;;;;;;;;11.08;79.90;100033.20;84801;1325;22869;-73
2022/05/29 04:36:50;;;;;;;;;;;;;;;11.10;79.86;100029.80;84827;1327;22718;-73
2022/05/29 04:38:57;;;;;;;;;;;;;;;11.14;79.88;100031.55;84804;1327;24440;-72
2022/05/29 04:41:07;;;;;;;;;;;;;;;11.16;79.83;100028.48;84804;1327;23845;-73
2022/05/29 04:43:13;;;;;;;;;;;;;;;11.17;79.79;100032.60;84820;1325;24201;-72
2022/05/29 04:45:19;;;;;;;;;;;;;;;11.18;79.51;100030.48;84812;1327;24210;-73
2022/05/29 04:47:27;;;;;;;;;;;;;;;11.17;79.21;100032.26;84782;1326;24247;-73
2022/05/29 04:49:33;;;;;;;;;;;;;;;11.15;79.08;100036.37;84785;1326;22594;-71
2022/05/29 04:51:39;;;;;;;;;;;;;;;11.13;79.25;100036.81;84792;1328;23859;-72
2022/05/29 04:53:45;;;;;;;;;;;;;;;11.11;79.14;100032.38;84815;1325;22572;-71
2022/05/29 04:55:54;;;;;;;;;;;;;;;11.10;79.21;100035.04;84809;1327;22592;-74
2022/05/29 04:57:59;;;;;;;;;;;;;;;11.09;79.02;100031.23;84825;1328;22582;-73
2022/05/29 05:00:08;;;;;;;;;;;;;;;11.10;79.00;100030.47;84793;1327;22572;-73
2022/05/29 05:02:14;;;;;;;;;;;;;;;11.11;79.19;100030.41;84796;1327;22589;-73
2022/05/29 05:04:20;;;;;;;;;;;;;;;11.13;79.07;100029.99;84832;1327;22588;-72
2022/05/29 05:06:27;;;;;;;;;;;;;;;11.17;79.11;100031.59;84784;1325;22565;-73
2022/05/29 05:08:34;;;;;;;;;;;;;;;11.19;79.23;100031.84;84802;1325;23917;-72
2022/05/29 05:10:40;;;;;;;;;;;;;;;11.22;79.05;100030.10;84789;1327;24249;-72
2022/05/29 05:12:46;;;;;;;;;;;;;;;11.26;79.47;100034.81;84798;1323;22580;-72
2022/05/29 05:14:52;;;;;;;;;;;;;;;11.29;79.21;100035.04;84791;1327;25435;-73
2022/05/29 05:16:58;;;;;;;;;;;;;;;11.31;79.27;100034.23;84804;1327;22634;-73
2022/05/29 05:19:04;;;;;;;;;;;;;;;11.32;78.89;100038.36;84814;1326;22600;-74
2022/05/29 05:21:10;;;;;;;;;;;;;;;11.35;78.94;100035.10;84783;1326;23767;-73
2022/05/29 05:23:16;;;;;;;;;;;;;;;11.39;78.94;100037.38;84795;1327;22623;-73
2022/05/29 05:25:22;;;;;;;;;;;;;;;11.43;78.68;100035.26;84796;1327;22566;-74
2022/05/29 05:27:28;;;;;;;;;;;;;;;11.47;78.62;100036.10;84784;1329;22577;-73
2022/05/29 05:29:36;;;;;;;;;;;;;;;11.53;78.65;100036.54;84794;1327;22641;-73
2022/05/29 05:31:42;;;;;;;;;;;;;;;11.57;78.17;100039.27;84815;1327;25408;-71
2022/05/29 05:33:48;;;;;;;;;;;;;;;11.65;78.24;100043.30;84828;1327;22566;-73
2022/05/29 05:35:55;;;;;;;;;;;;;;;11.73;77.91;100047.81;84799;1327;22575;-73
2022/05/29 05:38:02;;;;;;;;;;;;;;;11.81;77.76;100046.56;84813;1327;24323;-73
2022/05/29 05:40:10;;;;;;;;;;;;;;;11.90;77.39;100049.12;84802;1325;25438;-73
2022/05/29 05:42:16;;;;;;;;;;;;;;;11.98;77.16;100050.29;84800;1328;23027;-73
2022/05/29 05:44:22;;;;;;;;;;;;;;;12.07;77.19;100047.92;84812;1323;22565;-73
2022/05/29 05:46:28;;;;;;;;;;;;;;;12.15;77.07;100046.67;84798;1327;22815;-73
2022/05/29 05:48:34;;;;;;;;;;;;;;;12.20;76.66;100047.80;84825;1327;22915;-72
2022/05/29 05:50:40;;;;;;;;;;;;;;;12.24;76.28;100049.04;84810;1327;22579;-73
2022/05/29 05:52:46;;;;;;;;;;;;;;;12.27;76.30;100050.09;84806;1328;22798;-74
2022/05/29 05:54:52;;;;;;;;;;;;;;;12.30;76.25;100051.65;84800;1321;22837;-73
2022/05/29 05:56:58;;;;;;;;;;;;;;;12.33;76.02;100052.93;84819;1327;22578;-73
2022/05/29 05:59:05;;;;;;;;;;;;;;;12.37;75.82;100053.27;84806;1328;24288;-73
2022/05/29 06:01:12;;;;;;;;;;;;;;;12.36;75.40;100057.51;84790;1326;25692;-73
2022/05/29 06:03:18;;;;;;;;;;;;;;;12.35;75.53;100057.91;84788;1327;22576;-72
2022/05/29 06:05:26;;;;;;;;;;;;;;;12.39;75.53;100058.57;84798;1327;22663;-73
2022/05/29 06:07:32;;;;;;;;;;;;;;;12.44;75.11;100056.77;84802;1325;22596;-73
2022/05/29 06:09:38;;;;;;;;;;;;;;;12.42;74.80;100062.27;84816;1326;22588;-73
2022/05/29 06:11:44;;;;;;;;;;;;;;;12.45;74.84;100062.15;84796;1322;22598;-73
2022/05/29 06:13:50;;;;;;;;;;;;;;;12.49;75.01;100064.02;84804;1328;25457;-73
2022/05/29 06:15:59;;;;;;;;;;;;;;;12.56;75.16;100062.11;84814;1327;22561;-73
2022/05/29 06:18:05;;;;;;;;;;;;;;;12.66;74.87;100061.38;84809;1325;22576;-73
2022/05/29 06:20:13;;;;;;;;;;;;;;;12.84;74.64;100065.02;84816;1321;23043;-72
2022/05/29 06:22:19;;;;;;;;;;;;;;;13.12;74.79;100062.68;84797;1327;22598;-73
2022/05/29 06:24:25;;;;;;;;;;;;;;;13.32;74.19;100065.81;84819;1327;24271;-72
2022/05/29 06:26:31;;;;;;;;;;;;;;;13.55;74.01;100067.00;84796;1327;23857;-73
2022/05/29 06:28:37;;;;;;;;;;;;;;;13.72;73.21;100072.20;84806;1327;22662;-73
2022/05/29 06:30:44;;;;;;;;;;;;;;;13.80;72.67;100075.96;84803;1328;22660;-72
2022/05/29 06:32:50;;;;;;;;;;;;;;;13.86;72.00;100075.95;84816;1327;22760;-73
2022/05/29 06:34:56;;;;;;;;;;;;;;;13.90;72.12;100072.92;84806;1327;22561;-73
2022/05/29 06:37:05;;;;;;;;;;;;;;;14.00;71.95;100076.40;84809;1327;22557;-73
2022/05/29 06:39:11;;;;;;;;;;;;;;;14.12;71.43;100078.71;84831;1327;22818;-72
2022/05/29 06:41:19;;;;;;;;;;;;;;;14.41;72.01;100082.85;84797;1327;22951;-73
2022/05/29 06:43:25;;;;;;;;;;;;;;;14.83;71.31;100079.98;84798;1325;24240;-72
2022/05/29 06:45:31;;;;;;;;;;;;;;;15.02;70.53;100083.59;84811;1327;22576;-72
2022/05/29 06:47:37;;;;;;;;;;;;;;;15.30;70.69;100087.50;84818;1325;25223;-73
2022/05/29 06:49:43;;;;;;;;;;;;;;;16.13;71.87;100086.98;84802;1327;24259;-73
2022/05/29 06:51:49;;;;;;;;;;;;;;;16.68;69.30;100084.56;84792;1327;22568;-73
2022/05/29 06:53:56;;;;;;;;;;;;;;;16.96;67.19;100088.98;84811;1329;22727;-73
2022/05/29 06:56:02;;;;;;;;;;;;;;;17.07;65.68;100090.52;84809;1329;24281;-73
2022/05/29 06:58:08;;;;;;;;;;;;;;;17.23;65.10;100091.84;84807;1326;25416;-72
2022/05/29 07:07:28;;;;;;;;;;;;;;;17.65;61.78;100092.05;84807;1327;22665;-74
2022/05/29 07:09:36;;;;;;;;;;;;;;;17.75;61.41;100090.34;84793;1329;24286;-72
2022/05/29 07:11:42;;;;;;;;;;;;;;;17.76;61.00;100092.53;84809;1328;22567;-73
2022/05/29 07:13:48;;;;;;;;;;;;;;;17.73;60.12;100093.47;84806;1326;22753;-73
2022/05/29 07:15:54;;;;;;;;;;;;;;;17.75;60.85;100093.85;84788;1325;24360;-73
2022/05/29 07:18:00;;;;;;;;;;;;;;;18.06;60.46;100090.55;84787;1322;22585;-73
2022/05/29 07:20:07;;;;;;;;;;;;;;;18.02;59.52;100097.69;84789;1322;22911;-73
2022/05/29 07:22:13;;;;;;;;;;;;;;;17.95;59.02;100102.27;84812;1327;22574;-73
2022/05/29 07:24:19;;;;;;;;;;;;;;;18.23;59.15;100100.73;84806;1327;22571;-73
2022/05/29 07:26:25;;;;;;;;;;;;;;;18.34;58.30;100102.39;84820;1327;22914;-73
2022/05/29 07:28:31;;;;;;;;;;;;;;;18.56;58.19;100099.80;84820;1328;22559;-73
2022/05/29 07:30:38;;;;;;;;;;;;;;;19.16;59.01;100100.92;84814;1327;22600;-73
2022/05/29 07:32:44;;;;;;;;;;;;;;;19.86;56.73;100102.48;84813;1325;22574;-73
2022/05/29 07:34:50;;;;;;;;;;;;;;;19.92;54.48;100104.46;84790;1325;22565;-73
2022/05/29 07:37:02;;;;;;;;;;;;;;;19.86;54.35;100106.91;84792;1327;22550;-73
2022/05/29 07:39:09;;;;;;;;;;;;;;;19.70;53.25;100111.73;84811;1327;22562;-72
2022/05/29 07:43:38;;;;;;;;;;;;;;;19.16;53.49;100115.43;84788;1321;22940;-72
2022/05/29 07:45:45;;;;;;;;;;;;;;;18.92;53.78;100118.54;84796;1327;22641;-72
2022/05/29 07:47:55;;;;;;;;;;;;;;;18.76;53.77;100115.33;84795;1327;22585;-73
2022/05/29 07:50:01;;;;;;;;;;;;;;;18.86;55.08;100117.35;84793;1327;22567;-72
2022/05/29 07:52:08;;;;;;;;;;;;;;;19.55;54.48;100116.80;84812;1326;22633;-73
2022/05/29 07:54:14;;;;;;;;;;;;;;;19.76;53.33;100117.22;84802;1327;25224;-72
2022/05/29 07:56:20;;;;;;;;;;;;;;;19.83;52.79;100119.30;84803;1326;22575;-73
2022/05/29 07:58:26;;;;;;;;;;;;;;;19.79;52.00;100118.05;84817;1327;22563;-73
2022/05/29 08:00:32;;;;;;;;;;;;;;;19.62;51.69;100116.80;84808;1326;22567;-72
2022/05/29 08:02:38;;;;;;;;;;;;;;;19.47;51.28;100119.00;84789;1328;24338;-73
2022/05/29 08:04:47;;;;;;;;;;;;;;;19.32;51.92;100127.43;84791;1328;22600;-72
2022/05/29 08:06:53;;;;;;;;;;;;;;;19.10;51.95;100129.00;84787;1327;23302;-71
2022/05/29 08:08:59;;;;;;;;;;;;;;;18.85;52.20;100130.86;84817;1322;22576;-71
2022/05/29 08:11:05;;;;;;;;;;;;;;;18.58;52.04;100135.02;84818;1322;22579;-72
2022/05/29 08:13:11;;;;;;;;;;;;;;;18.35;52.75;100137.83;84817;1322;24233;-73
2022/05/29 08:15:17;;;;;;;;;;;;;;;18.31;53.45;100140.55;84819;1325;22679;-74
2022/05/29 08:17:23;;;;;;;;;;;;;;;18.32;53.66;100138.39;84820;1325;22733;-72
2022/05/29 08:19:29;;;;;;;;;;;;;;;18.33;54.11;100140.41;84814;1326;25407;-73
2022/05/29 08:21:35;;;;;;;;;;;;;;;18.37;54.20;100137.45;84798;1327;22576;-73
2022/05/29 08:30:37;;;;;;;;;;;;;;;18.41;54.22;100136.84;84797;1327;22628;-72
2022/05/29 08:31:05;;;;;;;;;;;;;;;20.22;53.26;100126.41;84792;1326;22554;-72
2022/05/29 08:33:23;;;;;;;;;;;;;;;21.37;52.48;100122.05;84805;1327;22741;-72
2022/05/29 08:35:31;;;;;;;;;;;;;;;22.21;50.72;100125.14;84824;1325;22866;-73
2022/05/29 08:37:40;;;;;;;;;;;;;;;22.44;48.17;100124.09;84794;1325;22567;-73
2022/05/29 08:39:47;;;;;;;;;;;;;;;22.43;46.75;100127.77;84797;1328;22565;-73
2022/05/29 08:41:54;;;;;;;;;;;;;;;22.14;45.34;100124.44;84807;1327;22582;-73
2022/05/29 08:44:06;;;;;;;;;;;;;;;21.70;45.54;100131.20;84808;1325;22575;-73
2022/05/29 08:46:16;;;;;;;;;;;;;;;21.22;45.90;100133.06;84810;1327;24297;-73
2022/05/29 08:48:30;;;;;;;;;;;;;;;20.64;46.60;100138.02;84822;1325;22623;-72
2022/05/29 08:50:39;;;;;;;;;;;;;;;20.16;47.29;100138.83;84801;1325;25420;-71
2022/05/29 08:52:51;;;;;;;;;;;;;;;19.70;48.09;100139.34;84783;1327;25120;-73
2022/05/29 08:55:00;;;;;;;;;;;;;;;19.33;48.93;100146.09;84827;1327;22568;-73
2022/05/29 08:57:11;;;;;;;;;;;;;;;19.08;49.07;100142.09;84819;1327;22599;-73
2022/05/29 08:59:23;;;;;;;;;;;;;;;18.80;49.47;100142.59;84796;1325;22660;-74
2022/05/29 09:01:37;;;;;;;;;;;;;;;18.49;50.48;100144.20;84808;1328;22562;-69
2022/05/29 09:03:53;;;;;;;;;;;;;;;18.25;50.96;100146.34;84791;1328;22679;-73
2022/05/29 09:06:03;;;;;;;;;;;;;;;18.02;51.47;100151.73;84801;1327;22578;-72
2022/05/29 09:08:12;;;;;;;;;;;;;;;17.80;51.68;100153.98;84804;1321;22583;-71
2022/05/29 09:10:21;;;;;;;;;;;;;;;17.62;52.05;100150.98;84824;1327;22570;-72
2022/05/29 09:12:29;;;;;;;;;;;;;;;17.45;52.75;100153.25;84808;1328;22571;-71
2022/05/29 09:14:41;;;;;;;;;;;;;;;17.36;52.92;100152.67;84810;1327;25935;-73
2022/05/29 09:16:48;;;;;;;;;;;;;;;17.31;53.02;100155.13;84806;1326;22600;-72
2022/05/29 09:19:02;;;;;;;;;;;;;;;17.28;52.97;100154.79;84804;1327;22570;-72
2022/05/29 09:21:11;;;;;;;;;;;;;;;17.23;52.99;100156.70;84817;1328;22562;-72
2022/05/29 09:23:21;;;;;;;;;;;;;;;17.21;53.55;100152.27;84814;1325;23751;-72
2022/05/29 09:25:33;;;;;;;;;;;;;;;17.23;53.16;100152.50;84784;1326;24229;-72
2022/05/29 09:27:41;;;;;;;;;;;;;;;17.28;53.40;100150.94;84793;1327;22602;-74
2022/05/29 09:29:47;;;;;;;;;;;;;;;17.34;53.69;100145.89;84825;1327;22604;-75
2022/05/29 09:31:55;;;;;;;;;;;;;;;17.41;53.66;100151.61;84794;1323;24197;-74
2022/05/29 09:34:01;;;;;;;;;;;;;;;17.73;54.57;100148.29;84773;1327;22590;-75
2022/05/29 09:36:11;;;;;;;;;;;;;;;18.36;55.11;100137.89;84791;1327;22562;-70
2022/05/29 09:38:23;;;;;;;;;;;;;;;18.98;54.86;100131.47;84820;1327;22769;-73
2022/05/29 09:40:32;;;;;;;;;;;;;;;19.30;51.96;100133.42;84818;1327;22573;-71
2022/05/29 09:42:39;;;;;;;;;;;;;;;19.40;50.73;100134.60;84818;1325;22562;-70
2022/05/29 09:45:03;;;;;;;;;;;;;;;19.47;50.46;100134.72;84801;1325;23951;-71
2022/05/29 09:49:45;;;;;;;;;;;;;;;19.50;48.88;100138.20;84632;1326;22594;-70
2022/05/29 09:51:55;;;;;;;;;;;;;;;19.53;48.76;100137.09;84791;1327;22636;-71
2022/05/29 09:54:04;;;;;;;;;;;;;;;19.53;48.40;100132.51;84798;1327;23816;-71
2022/05/29 09:56:10;;;;;;;;;;;;;;;19.53;48.92;100143.67;84819;1327;22592;-72
2022/05/29 09:58:18;;;;;;;;;;;;;;;19.57;48.80;100143.52;84800;1326;22848;-72
2022/05/29 10:00:28;;;;;;;;;;;;;;;19.57;48.67;100138.56;84810;1327;25402;-71
2022/05/29 10:02:45;;;;;;;;;;;;;;;19.62;48.79;100137.67;84807;1327;22589;-70
2022/05/29 10:04:52;;;;;;;;;;;;;;;19.63;48.27;100145.20;84825;1327;23980;-72
2022/05/29 10:06:59;;;;;;;;;;;;;;;19.68;48.79;100146.39;84834;1327;22565;-72
2022/05/29 10:09:17;;;;;;;;;;;;;;;19.81;48.41;100144.12;84785;1327;22580;-72
2022/05/29 10:11:30;;;;;;;;;;;;;;;20.00;48.47;100138.67;84800;1326;22660;-72
2022/05/29 10:13:41;;;;;;;;;;;;;;;20.20;47.47;100143.62;84819;1327;22591;-73
2022/05/29 10:15:47;;;;;;;;;;;;;;;20.24;47.40;100141.65;84804;1327;22698;-73
2022/05/29 10:17:53;;;;;;;;;;;;;;;20.17;47.27;100140.30;84799;1327;24190;-72
2022/05/29 10:20:02;;;;;;;;;;;;;;;20.06;46.95;100150.39;84807;1325;22799;-72
2022/05/29 10:22:14;;;;;;;;;;;;;;;19.93;47.02;100151.26;84800;1326;22564;-72
2022/05/29 10:24:35;;;;;;;;;;;;;;;19.80;46.87;100152.52;84832;1327;22635;-73
2022/05/29 10:26:42;;;;;;;;;;;;;;;19.64;46.90;100149.93;84808;1326;22578;-71
2022/05/29 10:28:50;;;;;;;;;;;;;;;19.46;46.71;100157.16;84803;1327;22587;-72
2022/05/29 10:31:07;;;;;;;;;;;;;;;19.26;46.74;100162.73;84799;1327;22582;-72
2022/05/29 10:33:22;;;;;;;;;;;;;;;19.08;47.41;100162.91;84823;1327;22569;-72
2022/05/29 10:35:30;;;;;;;;;;;;;;;18.96;47.59;100159.44;84836;1326;22734;-72
2022/05/29 10:37:40;;;;;;;;;;;;;;;18.82;47.75;100162.96;84788;1327;22573;-72
2022/05/29 10:39:46;;;;;;;;;;;;;;;18.70;48.34;100170.57;84808;1327;22576;-73
2022/05/29 10:41:54;;;;;;;;;;;;;;;18.61;48.32;100168.36;84795;1327;22737;-72
2022/05/29 10:44:00;;;;;;;;;;;;;;;18.49;48.46;100170.87;84813;1327;22592;-73
2022/05/29 10:46:08;;;;;;;;;;;;;;;18.36;48.06;100171.25;84806;1326;22814;-73
2022/05/29 10:48:28;;;;;;;;;;;;;;;18.22;48.53;100172.50;84786;1325;22757;-73
2022/05/29 10:50:39;;;;;;;;;;;;;;;18.05;48.90;100171.96;84818;1326;22590;-73
2022/05/29 10:52:52;;;;;;;;;;;;;;;17.93;49.79;100173.00;84784;1328;22550;-72
2022/05/29 10:55:22;;;;;;;;;;;;;;;17.77;50.00;100173.09;84810;1325;22570;-72
2022/05/29 10:57:36;;;;;;;;;;;;;;;17.64;50.25;100172.08;84774;1327;22582;-72
2022/05/29 11:00:10;;;;;;;;;;;;;;;17.51;50.04;100168.33;84814;1327;22573;-73
2022/05/29 11:05:05;;;;;;;;;;;;;;;17.34;51.26;100162.52;84700;1325;22587;-72
2022/05/29 11:07:21;;;;;;;;;;;;;;;17.40;51.64;100157.70;84860;1328;25475;-73
2022/05/29 11:09:58;;;;;;;;;;;;;;;17.51;52.27;100156.88;84845;1326;22569;-72
2022/05/29 11:12:09;;;;;;;;;;;;;;;17.70;52.63;100151.15;84703;1327;22650;-73
2022/05/29 11:14:45;;;;;;;;;;;;;;;17.96;52.89;100149.66;84820;1327;22667;-73
2022/05/29 11:17:00;;;;;;;;;;;;;;;18.30;52.63;100145.82;84604;1327;22646;-72
2022/05/29 11:19:18;;;;;;;;;;;;;;;18.61;52.39;100144.33;84781;1327;22596;-73
2022/05/29 11:21:28;;;;;;;;;;;;;;;18.89;51.60;100145.95;84790;1327;22554;-71
2022/05/29 11:23:41;;;;;;;;;;;;;;;19.11;51.06;100149.40;84798;1327;22616;-73
2022/05/29 11:25:52;;;;;;;;;;;;;;;19.29;50.69;100145.73;84807;1327;24235;-72
2022/05/29 11:28:08;;;;;;;;;;;;;;;19.36;50.16;100146.95;84798;1324;22591;-73
2022/05/29 11:30:16;;;;;;;;;;;;;;;19.35;50.03;100148.61;84800;1326;24225;-74
2022/05/29 11:32:27;;;;;;;;;;;;;;;19.31;50.05;100151.19;84798;1326;22830;-73
2022/05/29 11:34:36;;;;;;;;;;;;;;;19.28;49.94;100144.88;84812;1326;25370;-73